Time;durP1;ratioP1;P1;durP2;ratioP2;P2;SDS_P1;SDS_P2;PMS_P1;PMS_P2;Temp;Humidity;BMP_temperature;BMP_pressure;BME280_temperature;BME280_humidity;BME280_pressure;Samples;Min_cycle;Max_cycle;Signal;HPM_P1;HPM_P2
2021/01/22 00:01:56;;;;;;;3.90;2.50;;;10.30;72.70;;;;;;5065975;28;20779;-62
2021/01/22 00:04:22;;;;;;;4.00;2.53;;;10.30;72.90;;;;;;5081933;28;20036;-62
2021/01/22 00:06:47;;;;;;;3.00;2.40;;;10.30;73.00;;;;;;5076111;28;20453;-62
2021/01/22 00:09:13;;;;;;;2.70;2.28;;;10.30;73.10;;;;;;5034813;28;20044;-62
2021/01/22 00:11:39;;;;;;;3.10;2.35;;;10.40;73.00;;;;;;5067807;28;20048;-62
2021/01/22 00:14:04;;;;;;;3.60;2.53;;;10.40;73.00;;;;;;5079520;28;20056;-61
2021/01/22 00:16:30;;;;;;;2.67;2.05;;;10.50;72.80;;;;;;5079013;28;20391;-61
2021/01/22 00:18:55;;;;;;;3.65;2.38;;;10.50;72.60;;;;;;5087123;28;20032;-61
2021/01/22 00:21:21;;;;;;;3.17;2.40;;;10.50;72.60;;;;;;5056406;28;20090;-61
2021/01/22 00:23:46;;;;;;;2.85;2.25;;;10.60;72.70;;;;;;5084127;28;20126;-62
2021/01/22 00:26:12;;;;;;;2.95;2.38;;;10.60;72.60;;;;;;5080643;28;20067;-62
2021/01/22 00:28:37;;;;;;;3.17;2.47;;;10.60;72.70;;;;;;5072033;28;20108;-61
2021/01/22 00:31:03;;;;;;;3.22;2.40;;;10.60;73.00;;;;;;5068117;28;20086;-62
2021/01/22 00:33:29;;;;;;;2.63;2.20;;;10.60;73.00;;;;;;5076167;28;20094;-62
2021/01/22 00:35:54;;;;;;;3.83;2.53;;;10.50;73.20;;;;;;5055489;28;20047;-62
2021/01/22 00:38:20;;;;;;;2.78;2.28;;;10.60;73.20;;;;;;5067795;28;20517;-63
2021/01/22 00:40:46;;;;;;;3.67;2.13;;;10.60;73.60;;;;;;5071213;28;20052;-62
2021/01/22 00:43:12;;;;;;;3.13;2.22;;;10.60;73.50;;;;;;5067929;28;20430;-62
2021/01/22 00:45:37;;;;;;;2.70;2.25;;;10.60;73.60;;;;;;5072415;28;20042;-62
2021/01/22 00:48:03;;;;;;;2.78;2.40;;;10.60;73.80;;;;;;5074032;28;20438;-62
2021/01/22 00:50:29;;;;;;;3.25;2.05;;;10.70;73.70;;;;;;5076605;28;20040;-63
2021/01/22 00:52:54;;;;;;;4.35;2.30;;;10.70;73.90;;;;;;5087910;28;20036;-62
2021/01/22 00:55:20;;;;;;;2.80;2.40;;;10.70;73.90;;;;;;5089740;28;20024;-62
2021/01/22 00:57:45;;;;;;;3.67;2.20;;;10.70;74.00;;;;;;5092001;28;20489;-61
2021/01/22 01:00:13;;;;;;;2.47;2.28;;;10.60;74.10;;;;;;5092063;28;20028;-62
2021/01/22 01:02:38;;;;;;;1.83;1.73;;;10.60;74.10;;;;;;5078371;28;20041;-62
2021/01/22 01:05:05;;;;;;;2.10;1.90;;;10.70;74.20;;;;;;5090580;28;20558;-62
2021/01/22 01:07:30;;;;;;;2.72;2.22;;;10.60;74.10;;;;;;5092957;28;20036;-62
2021/01/22 01:09:56;;;;;;;3.83;2.53;;;10.60;74.20;;;;;;5093117;28;20044;-64
2021/01/22 01:12:21;;;;;;;2.20;2.00;;;10.70;74.00;;;;;;5058015;28;20040;-63
2021/01/22 01:14:47;;;;;;;2.00;1.80;;;10.70;73.90;;;;;;5074426;28;20028;-62
2021/01/22 01:17:13;;;;;;;2.53;2.00;;;10.60;74.00;;;;;;5073929;28;20040;-62
2021/01/22 01:19:38;;;;;;;3.55;1.92;;;10.70;74.00;;;;;;5074612;28;20036;-63
2021/01/22 01:22:04;;;;;;;2.00;1.90;;;10.60;74.30;;;;;;5056449;28;20454;-62
2021/01/22 01:24:29;;;;;;;2.00;1.80;;;10.60;74.40;;;;;;5074657;28;20058;-63
2021/01/22 01:26:55;;;;;;;2.25;2.05;;;10.60;74.50;;;;;;5088584;28;20040;-63
2021/01/22 01:29:20;;;;;;;2.22;1.80;;;10.60;74.60;;;;;;5031901;28;20037;-63
2021/01/22 01:31:46;;;;;;;2.42;1.88;;;10.50;74.70;;;;;;5079268;28;20044;-63
2021/01/22 01:34:12;;;;;;;2.88;2.10;;;10.50;74.70;;;;;;5084831;28;20061;-62
2021/01/22 01:36:37;;;;;;;2.88;1.90;;;10.50;74.80;;;;;;5086227;28;20023;-63
2021/01/22 01:39:03;;;;;;;2.40;1.80;;;10.40;74.70;;;;;;5078027;28;20028;-63
2021/01/22 01:41:29;;;;;;;2.00;1.88;;;10.40;75.00;;;;;;5090335;28;20035;-63
2021/01/22 01:43:54;;;;;;;2.78;1.88;;;10.30;75.00;;;;;;5080249;28;20051;-62
2021/01/22 01:46:20;;;;;;;2.67;2.20;;;10.30;75.00;;;;;;5083589;28;20049;-62
2021/01/22 01:48:46;;;;;;;4.13;2.20;;;10.30;75.10;;;;;;5087129;28;20052;-62
2021/01/22 01:51:12;;;;;;;4.32;1.83;;;10.30;75.30;;;;;;5076148;28;20124;-63
2021/01/22 01:53:38;;;;;;;1.90;1.80;;;10.30;75.30;;;;;;5075716;28;20139;-64
2021/01/22 01:56:05;;;;;;;2.03;1.83;;;10.30;75.20;;;;;;5081014;28;20035;-63
2021/01/22 01:58:31;;;;;;;2.45;1.85;;;10.20;75.20;;;;;;5058872;28;20063;-63
2021/01/22 02:00:57;;;;;;;2.13;1.85;;;10.20;75.30;;;;;;5060141;28;20059;-63
2021/01/22 02:03:23;;;;;;;2.03;1.83;;;10.20;75.20;;;;;;5057407;28;20502;-63
2021/01/22 02:05:48;;;;;;;3.03;1.75;;;10.10;75.30;;;;;;5088405;28;20029;-63
2021/01/22 02:08:15;;;;;;;2.20;1.73;;;10.10;75.30;;;;;;5081985;28;20422;-63
2021/01/22 02:10:42;;;;;;;2.08;1.88;;;10.10;75.50;;;;;;5075626;28;20028;-63
2021/01/22 02:13:09;;;;;;;2.10;1.75;;;10.10;75.10;;;;;;5076645;28;20032;-62
2021/01/22 02:15:35;;;;;;;2.08;1.90;;;10.10;74.90;;;;;;5059999;28;20054;-62
2021/01/22 02:18:02;;;;;;;2.33;1.98;;;10.10;74.80;;;;;;5086015;28;20028;-63
2021/01/22 02:20:43;;;;;;;2.45;2.10;;;10.00;74.90;;;;;;5083802;28;20028;-63
2021/01/22 02:23:10;;;;;;;2.63;2.10;;;10.00;74.50;;;;;;5059410;28;20039;-63
2021/01/22 02:25:40;;;;;;;3.28;2.10;;;10.00;74.60;;;;;;5073915;28;20033;-64
2021/01/22 02:28:09;;;;;;;3.60;2.33;;;9.90;74.40;;;;;;5088830;28;20016;-63
2021/01/22 02:30:35;;;;;;;3.50;2.25;;;9.90;74.50;;;;;;5068406;28;20111;-64
2021/01/22 02:33:02;;;;;;;2.10;1.90;;;9.90;74.20;;;;;;5065266;28;20027;-63
2021/01/22 02:35:28;;;;;;;3.22;2.08;;;9.90;74.10;;;;;;5070554;28;20044;-63
2021/01/22 02:37:55;;;;;;;2.58;2.10;;;9.80;74.10;;;;;;5065441;28;20050;-63
2021/01/22 02:40:22;;;;;;;5.65;3.28;;;9.90;73.60;;;;;;5059963;28;20029;-62
2021/01/22 02:42:49;;;;;;;2.38;2.10;;;9.90;73.20;;;;;;5053019;28;20033;-62
2021/01/22 02:45:16;;;;;;;4.25;2.35;;;9.90;73.10;;;;;;5069938;28;20059;-64
2021/01/22 02:47:47;;;;;;;3.00;2.42;;;9.80;73.00;;;;;;5072630;28;20429;-64
2021/01/22 02:50:17;;;;;;;2.80;2.40;;;9.90;72.70;;;;;;5072675;28;20375;-64
2021/01/22 02:52:44;;;;;;;3.80;2.60;;;9.80;72.50;;;;;;5072410;28;20138;-65
2021/01/22 02:55:13;;;;;;;3.58;2.45;;;9.80;72.70;;;;;;5054656;28;20033;-61
2021/01/22 02:57:56;;;;;;;4.35;2.50;;;9.80;72.30;;;;;;5054512;28;20368;-63
2021/01/22 03:00:27;;;;;;;3.22;2.70;;;9.80;72.30;;;;;;5072712;28;20297;-63
2021/01/22 03:03:31;;;;;;;3.78;2.50;;;9.90;72.60;;;;;;5072519;28;20021;-63
2021/01/22 03:05:58;;;;;;;2.92;2.28;;;9.90;71.70;;;;;;5072125;28;20397;-64
2021/01/22 03:08:26;;;;;;;3.50;2.88;;;9.90;71.70;;;;;;5072184;28;20049;-64
2021/01/22 03:10:54;;;;;;;3.13;2.45;;;9.90;71.30;;;;;;5071885;28;20056;-62
2021/01/22 03:13:20;;;;;;;3.30;2.53;;;9.90;71.40;;;;;;5054190;28;20032;-63
2021/01/22 03:15:47;;;;;;;2.70;2.40;;;9.80;71.30;;;;;;5072084;28;20033;-63
2021/01/22 03:18:15;;;;;;;3.58;2.45;;;9.80;71.50;;;;;;5072070;28;20028;-64
2021/01/22 03:20:42;;;;;;;2.75;2.42;;;9.80;71.40;;;;;;5071891;28;20387;-64
2021/01/22 03:23:08;;;;;;;3.78;2.67;;;9.70;71.40;;;;;;5072013;28;20051;-63
2021/01/22 03:25:34;;;;;;;2.95;2.35;;;9.70;71.20;;;;;;5072077;28;20044;-64
2021/01/22 03:27:59;;;;;;;4.18;2.72;;;9.70;71.20;;;;;;5072029;28;20037;-63
2021/01/22 03:30:25;;;;;;;3.08;2.55;;;9.70;71.20;;;;;;5054038;28;20087;-62
2021/01/22 03:32:51;;;;;;;3.10;2.80;;;9.70;71.10;;;;;;5053730;28;20376;-62
2021/01/22 03:35:18;;;;;;;4.65;2.53;;;9.60;71.20;;;;;;5071694;28;20115;-62
2021/01/22 03:37:43;;;;;;;3.30;2.50;;;9.70;71.10;;;;;;5071829;28;20021;-63
2021/01/22 03:40:09;;;;;;;4.72;2.85;;;9.70;70.90;;;;;;5071966;28;20059;-62
2021/01/22 03:42:35;;;;;;;3.80;2.53;;;9.70;70.90;;;;;;5072200;28;20090;-63
2021/01/22 03:45:01;;;;;;;3.60;2.47;;;9.70;70.80;;;;;;5053336;28;20483;-62
2021/01/22 03:47:26;;;;;;;5.30;3.50;;;9.70;70.50;;;;;;5071638;28;20040;-63
2021/01/22 03:49:52;;;;;;;3.10;2.40;;;9.70;70.40;;;;;;5053803;28;20025;-63
2021/01/22 03:52:18;;;;;;;3.40;2.67;;;9.80;70.30;;;;;;5053579;28;20064;-63
2021/01/22 03:54:43;;;;;;;3.78;2.13;;;9.80;70.30;;;;;;5070818;28;20530;-63
2021/01/22 03:57:09;;;;;;;4.05;2.40;;;9.80;70.40;;;;;;5071178;28;20480;-63
2021/01/22 03:59:34;;;;;;;2.90;2.45;;;9.80;70.30;;;;;;5071811;28;20089;-63
2021/01/22 04:02:00;;;;;;;2.90;2.30;;;9.80;70.50;;;;;;5053854;28;20060;-64
2021/01/22 04:04:26;;;;;;;2.50;2.30;;;9.80;69.90;;;;;;5071775;28;20489;-64
2021/01/22 04:06:51;;;;;;;3.25;2.20;;;9.80;70.10;;;;;;5071452;28;20059;-63
2021/01/22 04:09:17;;;;;;;3.70;2.83;;;9.70;70.30;;;;;;5071938;28;20037;-64
2021/01/22 04:11:42;;;;;;;2.60;2.13;;;9.70;70.40;;;;;;5071052;28;20040;-63
2021/01/22 04:14:08;;;;;;;3.15;2.20;;;9.70;70.40;;;;;;5071510;28;20037;-63
2021/01/22 04:16:33;;;;;;;2.45;2.22;;;9.80;70.20;;;;;;5053560;28;20044;-63
2021/01/22 04:18:59;;;;;;;4.63;3.25;;;9.80;70.10;;;;;;5071528;28;20028;-64
2021/01/22 04:21:25;;;;;;;3.63;2.50;;;9.90;70.00;;;;;;5071397;28;20033;-63
2021/01/22 04:23:50;;;;;;;2.95;2.50;;;9.80;70.00;;;;;;5074106;28;20033;-63
2021/01/22 04:26:16;;;;;;;3.03;2.30;;;9.80;70.10;;;;;;5075147;28;20217;-63
2021/01/22 04:28:42;;;;;;;2.92;2.20;;;9.80;70.20;;;;;;5075374;28;20064;-62
2021/01/22 04:31:07;;;;;;;2.30;2.00;;;9.80;70.10;;;;;;5057234;28;20045;-63
2021/01/22 04:33:33;;;;;;;3.30;2.30;;;9.90;70.00;;;;;;5075307;28;20037;-63
2021/01/22 04:35:58;;;;;;;3.78;2.17;;;9.90;69.90;;;;;;5074980;28;20045;-63
2021/01/22 04:38:24;;;;;;;2.95;2.47;;;9.90;69.70;;;;;;5075532;28;20336;-62
2021/01/22 04:40:50;;;;;;;3.08;2.25;;;10.00;69.70;;;;;;5074559;28;20044;-63
2021/01/22 04:43:16;;;;;;;2.88;1.92;;;10.00;69.60;;;;;;5075347;28;20090;-63
2021/01/22 04:45:42;;;;;;;3.80;2.60;;;10.10;69.40;;;;;;5075057;28;20420;-64
2021/01/22 04:48:08;;;;;;;2.78;2.47;;;10.10;69.30;;;;;;5075416;28;20059;-63
2021/01/22 04:50:34;;;;;;;3.70;2.10;;;10.10;69.20;;;;;;5074696;28;20120;-64
2021/01/22 04:53:06;;;;;;;2.20;2.00;;;10.10;69.10;;;;;;5074761;28;20114;-64
2021/01/22 04:55:33;;;;;;;2.63;2.10;;;10.30;68.90;;;;;;5056085;28;20127;-64
2021/01/22 04:58:01;;;;;;;2.28;1.90;;;10.20;68.90;;;;;;5074418;28;20063;-63
2021/01/22 05:00:27;;;;;;;4.47;3.58;;;10.30;68.80;;;;;;5074036;28;20036;-63
2021/01/22 05:02:53;;;;;;;3.30;2.10;;;10.30;69.10;;;;;;5074246;28;20107;-64
2021/01/22 05:05:20;;;;;;;2.95;2.10;;;10.30;69.30;;;;;;5073814;28;20428;-63
2021/01/22 05:07:46;;;;;;;2.10;1.90;;;10.30;69.40;;;;;;5056248;28;20040;-63
2021/01/22 05:10:12;;;;;;;3.30;2.00;;;10.30;69.40;;;;;;5056823;28;20094;-63
2021/01/22 05:12:38;;;;;;;2.53;2.00;;;10.30;69.40;;;;;;5056365;28;20037;-63
2021/01/22 05:15:24;;;;;;;2.08;1.70;;;10.40;69.30;;;;;;5073998;28;20044;-62
2021/01/22 05:18:03;;;;;;;3.97;2.00;;;10.30;69.30;;;;;;5073818;28;20367;-63
2021/01/22 05:20:45;;;;;;;3.28;2.40;;;10.30;69.40;;;;;;5074210;28;20120;-62
2021/01/22 05:23:11;;;;;;;2.30;2.05;;;10.30;69.30;;;;;;5053753;28;20044;-61
2021/01/22 05:26:06;;;;;;;3.55;2.10;;;10.40;69.40;;;;;;5035342;28;20403;-62
2021/01/22 05:28:40;;;;;;;4.10;1.92;;;10.40;69.40;;;;;;5053400;28;20376;-62
2021/01/22 05:31:09;;;;;;;2.50;2.00;;;10.40;69.70;;;;;;5057349;28;20037;-62
2021/01/22 05:33:39;;;;;;;3.00;1.90;;;10.40;69.80;;;;;;5073258;28;20294;-63
2021/01/22 05:36:24;;;;;;;4.05;2.08;;;10.40;70.10;;;;;;5073028;28;20035;-63
2021/01/22 05:38:51;;;;;;;2.50;1.80;;;10.40;70.10;;;;;;5074169;28;20126;-62
2021/01/22 05:41:16;;;;;;;5.95;2.40;;;10.50;70.10;;;;;;5073450;28;20036;-62
2021/01/22 05:43:42;;;;;;;3.00;1.90;;;10.50;70.20;;;;;;5073568;28;20386;-64
2021/01/22 05:46:21;;;;;;;2.60;1.98;;;10.50;70.10;;;;;;5073027;28;20542;-62
2021/01/22 05:48:46;;;;;;;2.58;1.98;;;10.50;70.00;;;;;;5073683;28;20031;-63
2021/01/22 05:51:13;;;;;;;3.42;2.13;;;10.60;70.10;;;;;;5073577;28;20119;-59
2021/01/22 05:53:48;;;;;;;3.20;2.20;;;10.60;70.10;;;;;;5073424;28;20025;-59
2021/01/22 05:56:18;;;;;;;3.03;2.28;;;10.50;70.20;;;;;;5073771;28;20044;-59
2021/01/22 05:58:46;;;;;;;2.13;1.77;;;10.50;70.50;;;;;;5055922;28;20024;-60
2021/01/22 06:01:13;;;;;;;3.17;2.15;;;10.50;70.40;;;;;;5072965;28;20078;-63
2021/01/22 06:03:41;;;;;;;3.17;1.92;;;10.50;70.30;;;;;;5053473;28;20040;-63
2021/01/22 06:06:08;;;;;;;2.60;1.95;;;10.50;70.30;;;;;;5053783;28;20037;-62
2021/01/22 06:08:53;;;;;;;3.70;2.28;;;10.40;70.30;;;;;;5073068;28;20054;-61
2021/01/22 06:11:23;;;;;;;3.20;2.20;;;10.50;70.20;;;;;;5074017;28;20453;-61
2021/01/22 06:13:50;;;;;;;2.75;2.25;;;10.40;70.30;;;;;;5072465;28;20450;-61
2021/01/22 06:16:18;;;;;;;3.10;2.10;;;10.40;70.50;;;;;;5074620;28;20306;-60
2021/01/22 06:18:55;;;;;;;2.63;2.10;;;10.40;70.40;;;;;;5055454;28;20040;-58
2021/01/22 06:21:46;;;;;;;3.85;2.15;;;10.40;70.40;;;;;;5074540;28;20032;-61
2021/01/22 06:24:12;;;;;;;4.38;2.10;;;10.40;70.30;;;;;;5040785;28;20135;-59
2021/01/22 06:26:39;;;;;;;5.05;3.03;;;10.40;70.30;;;;;;5054577;28;20075;-60
2021/01/22 06:29:07;;;;;;;3.00;2.35;;;10.40;70.40;;;;;;5055950;28;20044;-60
2021/01/22 06:31:33;;;;;;;4.03;2.80;;;10.40;70.30;;;;;;5069845;28;20037;-62
2021/01/22 06:34:00;;;;;;;3.63;2.28;;;10.40;70.20;;;;;;5075989;28;20062;-61
2021/01/22 06:36:26;;;;;;;3.63;2.15;;;10.50;70.10;;;;;;5073504;28;20040;-61
2021/01/22 06:38:52;;;;;;;4.47;2.17;;;10.60;70.00;;;;;;5073553;28;20131;-60
2021/01/22 06:41:26;;;;;;;4.22;2.30;;;10.60;70.10;;;;;;5073237;28;20059;-60
2021/01/22 06:43:53;;;;;;;4.97;2.58;;;10.50;70.00;;;;;;5072837;28;20490;-58
2021/01/22 06:46:20;;;;;;;3.08;2.25;;;10.60;70.10;;;;;;5072611;28;20519;-58
2021/01/22 06:48:50;;;;;;;3.67;2.40;;;10.60;70.00;;;;;;5072438;28;20123;-56
2021/01/22 06:51:16;;;;;;;3.90;2.58;;;10.70;69.70;;;;;;5072497;28;20024;-61
2021/01/22 06:54:16;;;;;;;5.20;3.03;;;10.60;69.80;;;;;;5072289;28;20035;-62
2021/01/22 06:57:08;;;;;;;4.65;2.70;;;10.60;69.80;;;;;;5072244;28;20035;-62
2021/01/22 06:59:37;;;;;;;5.32;2.50;;;10.70;69.80;;;;;;5069947;28;20081;-62
2021/01/22 07:02:03;;;;;;;3.65;2.65;;;10.60;69.70;;;;;;5072274;28;20028;-60
2021/01/22 07:04:29;;;;;;;3.33;2.03;;;10.60;69.70;;;;;;5071593;28;20337;-61
2021/01/22 07:06:56;;;;;;;6.00;2.50;;;10.60;69.80;;;;;;5071976;28;20032;-59
2021/01/22 07:09:47;;;;;;;3.42;2.03;;;10.60;69.80;;;;;;5072062;28;20040;-62
2021/01/22 07:12:14;;;;;;;3.33;2.20;;;10.70;69.80;;;;;;5072333;28;20115;-60
2021/01/22 07:14:40;;;;;;;2.83;2.13;;;10.70;69.70;;;;;;5072475;28;20063;-57
2021/01/22 07:17:36;;;;;;;5.30;2.47;;;10.60;69.90;;;;;;5071844;28;20475;-57
2021/01/22 07:20:08;;;;;;;5.28;2.50;;;10.70;69.80;;;;;;5072250;28;20024;-62
2021/01/22 07:22:35;;;;;;;4.55;2.28;;;10.70;70.10;;;;;;5072061;28;20068;-61
2021/01/22 07:25:04;;;;;;;2.90;2.40;;;10.70;70.00;;;;;;5072147;28;20032;-58
2021/01/22 07:27:41;;;;;;;5.50;2.42;;;10.70;70.00;;;;;;5071619;28;20115;-58
2021/01/22 07:30:16;;;;;;;3.97;2.97;;;10.70;70.00;;;;;;5053975;28;20097;-62
2021/01/22 07:32:43;;;;;;;4.60;2.28;;;10.70;70.00;;;;;;5072190;28;20528;-64
2021/01/22 07:35:29;;;;;;;3.50;2.50;;;10.70;70.00;;;;;;5053812;28;20476;-59
2021/01/22 07:37:55;;;;;;;6.70;2.95;;;10.60;70.10;;;;;;5051411;28;20072;-61
2021/01/22 07:40:20;;;;;;;4.55;2.40;;;10.60;70.20;;;;;;5035932;28;20064;-61
2021/01/22 07:42:47;;;;;;;6.15;2.72;;;10.60;70.80;;;;;;5072346;28;20059;-58
2021/01/22 07:45:17;;;;;;;3.45;2.17;;;10.60;70.10;;;;;;5072247;28;20090;-61
2021/01/22 07:47:45;;;;;;;3.88;2.15;;;10.70;70.20;;;;;;5073672;28;20067;-60
2021/01/22 07:50:19;;;;;;;5.07;2.75;;;10.60;70.10;;;;;;5073390;28;20551;-61
2021/01/22 07:52:48;;;;;;;7.07;2.35;;;10.70;70.00;;;;;;5052246;28;20041;-62
2021/01/22 07:55:21;;;;;;;4.28;2.42;;;10.60;70.20;;;;;;5052295;28;20563;-61
2021/01/22 07:58:07;;;;;;;9.20;2.60;;;10.60;70.00;;;;;;5071288;28;20032;-60
2021/01/22 08:00:39;;;;;;;4.35;2.40;;;10.70;70.00;;;;;;5071719;28;20039;-61
2021/01/22 08:03:05;;;;;;;4.30;2.38;;;10.70;70.00;;;;;;5071958;28;20048;-62
2021/01/22 08:05:32;;;;;;;7.80;2.50;;;10.70;70.00;;;;;;5071948;28;20043;-60
2021/01/22 08:07:59;;;;;;;8.38;3.00;;;10.60;70.10;;;;;;5061483;28;20571;-60
2021/01/22 08:10:32;;;;;;;4.00;2.55;;;10.70;69.90;;;;;;5056654;28;20025;-61
2021/01/22 08:12:59;;;;;;;4.57;2.50;;;10.70;69.80;;;;;;5054795;28;20028;-61
2021/01/22 08:15:26;;;;;;;6.03;2.53;;;10.70;70.00;;;;;;5053558;28;20032;-61
2021/01/22 08:17:52;;;;;;;6.70;3.35;;;10.70;70.50;;;;;;5071565;28;20383;-62
2021/01/22 08:20:20;;;;;;;6.13;2.30;;;10.60;71.20;;;;;;5071494;28;20027;-60
2021/01/22 08:22:56;;;;;;;3.38;2.50;;;10.60;72.50;;;;;;5071606;28;20400;-60
2021/01/22 08:25:32;;;;;;;3.45;2.10;;;10.50;74.50;;;;;;5071160;28;20078;-61
2021/01/22 08:27:59;;;;;;;2.28;1.88;;;9.90;76.20;;;;;;5071478;28;20039;-58
2021/01/22 08:30:26;;;;;;;2.17;1.55;;;9.50;78.40;;;;;;5071636;28;20104;-62
2021/01/22 08:32:56;;;;;;;2.63;1.50;;;9.20;78.80;;;;;;5051696;28;20029;-60
2021/01/22 08:35:23;;;;;;;1.30;1.20;;;8.80;78.90;;;;;;5069356;28;20067;-61
2021/01/22 08:37:51;;;;;;;2.33;1.25;;;8.70;79.20;;;;;;5053429;28;20024;-62
2021/01/22 08:40:18;;;;;;;1.65;1.05;;;8.50;79.50;;;;;;5071316;28;20035;-61
2021/01/22 08:43:04;;;;;;;2.35;1.80;;;8.40;79.70;;;;;;5071427;28;20041;-61
2021/01/22 08:45:30;;;;;;;1.00;0.98;;;8.60;79.30;;;;;;5070863;28;20428;-60
2021/01/22 08:47:56;;;;;;;4.05;1.65;;;8.60;78.60;;;;;;5071139;28;20094;-61
2021/01/22 08:50:21;;;;;;;1.33;1.10;;;8.50;78.70;;;;;;5053226;28;20032;-58
2021/01/22 08:53:06;;;;;;;1.20;1.10;;;8.50;78.00;;;;;;5071216;28;20131;-62
2021/01/22 08:55:32;;;;;;;1.33;1.23;;;8.50;78.60;;;;;;5071558;28;20036;-60
2021/01/22 08:58:09;;;;;;;1.92;1.33;;;8.30;79.20;;;;;;5053377;28;20079;-61
2021/01/22 09:00:35;;;;;;;0.90;0.90;;;8.40;78.60;;;;;;5071817;28;20024;-60
2021/01/22 09:03:02;;;;;;;1.55;1.30;;;8.30;78.40;;;;;;5071308;28;20036;-61
2021/01/22 09:05:27;;;;;;;2.28;1.73;;;8.30;78.60;;;;;;5070898;28;20029;-61
2021/01/22 09:08:08;;;;;;;1.80;1.20;;;8.50;77.50;;;;;;5071404;28;20037;-62
2021/01/22 09:10:34;;;;;;;1.85;1.55;;;8.50;76.60;;;;;;5075819;28;20021;-61
2021/01/22 09:13:17;;;;;;;1.70;1.40;;;8.40;76.70;;;;;;5075325;28;20111;-60
2021/01/22 09:15:44;;;;;;;2.45;1.30;;;8.50;76.20;;;;;;5075481;28;20033;-61
2021/01/22 09:18:21;;;;;;;1.27;1.10;;;8.50;76.10;;;;;;5065718;28;20040;-61
2021/01/22 09:21:01;;;;;;;1.40;1.10;;;8.40;75.70;;;;;;5095448;28;20040;-61
2021/01/22 09:23:27;;;;;;;1.45;1.35;;;8.40;75.40;;;;;;5096029;28;20124;-60
2021/01/22 09:25:53;;;;;;;1.10;1.10;;;8.40;75.80;;;;;;5085965;28;20036;-62
2021/01/22 09:28:18;;;;;;;3.33;1.10;;;8.30;76.20;;;;;;5095717;28;20050;-62
2021/01/22 09:30:44;;;;;;;1.83;0.93;;;8.30;76.60;;;;;;5095724;28;20546;-62
2021/01/22 09:33:10;;;;;;;2.45;1.05;;;8.30;76.30;;;;;;5061016;28;20044;-63
2021/01/22 09:35:35;;;;;;;1.05;0.95;;;8.20;76.70;;;;;;5074817;28;20032;-61
2021/01/22 09:38:01;;;;;;;1.17;1.00;;;8.00;77.30;;;;;;5074784;28;20025;-61
2021/01/22 09:40:27;;;;;;;4.60;1.13;;;8.10;77.30;;;;;;5075255;28;20044;-61
2021/01/22 09:42:53;;;;;;;1.25;1.15;;;8.10;76.40;;;;;;5075457;28;20032;-63
2021/01/22 09:45:19;;;;;;;1.17;1.08;;;8.00;76.60;;;;;;5075394;28;20028;-61
2021/01/22 09:47:45;;;;;;;1.35;1.15;;;8.10;76.30;;;;;;5074926;28;20475;-60
2021/01/22 09:50:14;;;;;;;2.08;1.00;;;8.10;75.80;;;;;;5056570;28;20037;-62
2021/01/22 09:52:39;;;;;;;1.75;1.13;;;8.00;76.00;;;;;;5074195;28;20512;-61
2021/01/22 09:55:08;;;;;;;2.50;1.25;;;7.90;76.30;;;;;;5074655;28;20061;-61
2021/01/22 09:57:34;;;;;;;1.42;1.30;;;7.90;75.80;;;;;;5074279;28;20029;-60
2021/01/22 09:59:59;;;;;;;2.97;1.50;;;8.10;75.40;;;;;;5074549;28;20038;-63
2021/01/22 10:02:25;;;;;;;1.95;1.35;;;8.10;75.60;;;;;;5074545;28;20020;-61
2021/01/22 10:04:50;;;;;;;1.45;1.35;;;8.20;75.50;;;;;;5074413;28;20043;-60
2021/01/22 10:07:16;;;;;;;1.83;1.48;;;8.20;75.20;;;;;;5056023;28;20178;-62
2021/01/22 10:09:42;;;;;;;1.38;1.27;;;8.20;75.30;;;;;;5073709;28;20033;-60
2021/01/22 10:12:08;;;;;;;1.83;1.52;;;8.20;75.20;;;;;;5073178;28;20425;-61
2021/01/22 10:14:34;;;;;;;1.67;1.40;;;8.30;74.40;;;;;;5073136;28;20140;-61
2021/01/22 10:16:59;;;;;;;1.55;1.30;;;8.30;74.40;;;;;;5073171;28;20064;-61
2021/01/22 10:19:25;;;;;;;1.27;1.17;;;8.20;74.10;;;;;;5073357;28;20109;-61
2021/01/22 10:21:50;;;;;;;2.42;1.52;;;8.10;74.70;;;;;;5072737;28;20454;-61
2021/01/22 10:24:16;;;;;;;1.73;1.60;;;8.20;74.20;;;;;;5072836;28;20044;-62
2021/01/22 10:26:45;;;;;;;2.72;1.70;;;8.20;74.50;;;;;;5073291;28;20040;-61
2021/01/22 10:29:11;;;;;;;1.42;1.33;;;8.10;73.90;;;;;;5055149;28;20119;-61
2021/01/22 10:31:36;;;;;;;2.03;1.60;;;8.20;74.00;;;;;;5055179;28;20068;-61
2021/01/22 10:34:02;;;;;;;1.98;1.70;;;8.20;74.00;;;;;;5072567;28;20040;-61
2021/01/22 10:36:28;;;;;;;1.75;1.48;;;8.20;73.90;;;;;;5073366;28;20024;-61
2021/01/22 10:38:53;;;;;;;2.42;1.83;;;8.10;74.30;;;;;;5055299;28;20132;-60
2021/01/22 10:41:19;;;;;;;2.20;1.98;;;8.10;74.00;;;;;;5073607;28;20032;-61
2021/01/22 10:43:45;;;;;;;1.88;1.60;;;8.20;73.70;;;;;;5074919;28;20040;-61
2021/01/22 10:46:11;;;;;;;2.78;1.60;;;7.90;74.80;;;;;;5073843;28;20123;-58
2021/01/22 10:48:36;;;;;;;2.40;1.63;;;7.80;74.50;;;;;;5076300;28;20115;-60
2021/01/22 10:51:02;;;;;;;1.80;1.70;;;7.90;74.70;;;;;;5076415;28;20036;-61
2021/01/22 10:53:27;;;;;;;2.53;1.95;;;8.10;73.20;;;;;;5076146;28;20127;-62
2021/01/22 10:55:53;;;;;;;1.58;1.48;;;8.20;72.30;;;;;;5074474;28;20073;-61
2021/01/22 10:58:19;;;;;;;3.97;2.35;;;8.00;73.30;;;;;;5074691;28;20040;-60
2021/01/22 11:00:44;;;;;;;2.15;1.60;;;8.20;72.70;;;;;;5069725;28;20032;-60
2021/01/22 11:03:10;;;;;;;2.53;1.83;;;8.30;71.80;;;;;;5059304;28;20039;-59
2021/01/22 11:05:36;;;;;;;1.70;1.60;;;8.40;72.30;;;;;;5054895;28;20036;-62
2021/01/22 11:08:02;;;;;;;1.75;1.65;;;8.60;72.00;;;;;;5072296;28;20040;-62
2021/01/22 11:10:27;;;;;;;1.95;1.60;;;8.60;69.70;;;;;;5072667;28;20040;-62
2021/01/22 11:12:53;;;;;;;1.60;1.50;;;8.50;69.90;;;;;;5054479;28;20534;-61
2021/01/22 11:15:19;;;;;;;1.88;1.30;;;8.50;69.80;;;;;;5072234;28;20503;-63
2021/01/22 11:17:45;;;;;;;1.95;1.58;;;8.40;69.80;;;;;;5072506;28;20044;-60
2021/01/22 11:20:12;;;;;;;1.55;1.45;;;8.30;70.10;;;;;;5072683;28;20078;-61
2021/01/22 11:22:38;;;;;;;1.98;1.75;;;8.40;70.50;;;;;;5072127;28;20392;-64
2021/01/22 11:25:04;;;;;;;1.48;1.38;;;8.40;69.70;;;;;;5071191;28;20033;-63
2021/01/22 11:27:30;;;;;;;2.33;1.70;;;8.60;68.90;;;;;;5066950;28;20028;-63
2021/01/22 11:29:57;;;;;;;2.92;1.88;;;8.40;69.10;;;;;;5052284;28;20055;-61
2021/01/22 11:32:22;;;;;;;5.25;1.70;;;8.20;70.20;;;;;;5065625;28;20033;-61
2021/01/22 11:34:48;;;;;;;2.10;1.77;;;8.10;70.70;;;;;;5043250;28;20385;-62
2021/01/22 11:37:14;;;;;;;1.42;1.33;;;8.30;70.60;;;;;;5041457;28;20115;-62
2021/01/22 11:39:39;;;;;;;2.03;1.60;;;8.30;69.80;;;;;;5074222;28;20064;-66
2021/01/22 11:42:07;;;;;;;3.72;1.90;;;8.20;70.10;;;;;;5063308;28;20487;-61
2021/01/22 11:44:33;;;;;;;1.90;1.75;;;8.40;70.40;;;;;;5070527;28;20036;-59
2021/01/22 11:46:59;;;;;;;2.03;1.80;;;8.30;70.80;;;;;;5072242;28;20024;-62
2021/01/22 11:49:25;;;;;;;1.80;1.48;;;8.30;70.90;;;;;;5073228;28;20527;-63
2021/01/22 11:51:51;;;;;;;1.65;1.55;;;8.40;70.70;;;;;;5074919;28;20108;-59
2021/01/22 11:54:16;;;;;;;1.77;1.50;;;8.40;70.70;;;;;;5056607;28;20075;-61
2021/01/22 11:56:42;;;;;;;2.53;1.70;;;8.30;71.20;;;;;;5074050;28;20063;-62
2021/01/22 11:59:09;;;;;;;2.47;1.50;;;8.30;71.70;;;;;;5073607;28;20082;-60
2021/01/22 12:01:35;;;;;;;1.45;1.35;;;8.40;71.10;;;;;;5061138;28;20068;-62
2021/01/22 12:04:01;;;;;;;3.45;1.38;;;8.20;72.10;;;;;;5072459;28;20078;-60
2021/01/22 12:06:27;;;;;;;3.08;1.42;;;8.20;72.30;;;;;;5071404;28;20024;-61
2021/01/22 12:08:52;;;;;;;1.55;1.40;;;8.10;72.10;;;;;;5053475;28;20123;-61
2021/01/22 12:11:18;;;;;;;1.77;1.50;;;8.10;72.30;;;;;;5065927;28;20491;-59
2021/01/22 12:13:44;;;;;;;1.15;1.15;;;8.10;72.40;;;;;;5072855;28;20396;-62
2021/01/22 12:16:09;;;;;;;1.55;1.45;;;8.00;72.90;;;;;;5070495;28;20036;-60
2021/01/22 12:18:35;;;;;;;2.75;1.77;;;8.10;72.80;;;;;;5071198;28;20025;-62
2021/01/22 12:21:01;;;;;;;1.98;1.67;;;8.20;71.50;;;;;;5072436;28;20586;-56
2021/01/22 12:23:26;;;;;;;2.30;1.60;;;8.50;70.20;;;;;;5072963;28;20028;-60
2021/01/22 12:25:52;;;;;;;4.38;1.70;;;8.60;69.80;;;;;;5071687;28;20020;-63
2021/01/22 12:28:18;;;;;;;2.75;1.70;;;8.50;69.20;;;;;;5061090;28;20033;-60
2021/01/22 12:30:46;;;;;;;2.40;1.52;;;8.60;69.10;;;;;;5052049;28;20472;-64
2021/01/22 12:33:12;;;;;;;3.35;1.65;;;8.60;69.20;;;;;;5070862;28;20514;-59
2021/01/22 12:35:38;;;;;;;1.98;1.77;;;8.50;69.10;;;;;;5072072;28;20048;-61
2021/01/22 12:38:04;;;;;;;2.90;1.90;;;8.40;69.70;;;;;;5038561;28;20029;-58
2021/01/22 12:40:29;;;;;;;2.30;1.80;;;8.60;69.30;;;;;;5071098;28;20028;-59
2021/01/22 12:42:55;;;;;;;2.95;1.95;;;8.50;69.50;;;;;;5071699;28;20070;-61
2021/01/22 12:45:24;;;;;;;2.00;1.60;;;8.50;69.50;;;;;;5074017;28;20067;-62
2021/01/22 12:47:51;;;;;;;1.88;1.70;;;8.70;69.10;;;;;;5075187;28;20043;-60
2021/01/22 12:50:17;;;;;;;1.95;1.50;;;8.60;68.30;;;;;;5074929;28;20127;-60
2021/01/22 12:52:43;;;;;;;2.50;1.67;;;8.60;68.10;;;;;;5075031;28;20071;-61
2021/01/22 12:55:10;;;;;;;2.22;1.50;;;8.40;68.40;;;;;;5074607;28;20040;-60
2021/01/22 12:57:36;;;;;;;2.72;1.90;;;8.50;68.40;;;;;;5056650;28;20024;-59